createdAt,value
2023-03-14T00:01:49.336Z,98235.75
2023-03-14T00:04:15.793Z,98227.13
2023-03-14T00:06:42.257Z,98212.81
2023-03-14T00:09:08.894Z,98221.88
2023-03-14T00:11:35.410Z,98202.63
2023-03-14T00:14:02.064Z,98212.06
2023-03-14T00:16:30.303Z,98190.81
2023-03-14T00:19:02.508Z,98224.75
2023-03-14T00:21:29.455Z,98227.34
2023-03-14T00:24:00.424Z,98226.69
2023-03-14T00:26:31.789Z,98242.72
2023-03-14T00:28:58.278Z,98239.47
2023-03-14T00:31:28.886Z,98219.84
2023-03-14T00:34:01.512Z,98247.47
2023-03-14T00:36:33.841Z,98249.84
2023-03-14T00:39:03.414Z,98262.38
2023-03-14T00:41:31.663Z,98282.97
2023-03-14T00:43:59.405Z,98278.84
2023-03-14T00:46:30.048Z,98248.72
2023-03-14T00:49:03.779Z,98266.69
2023-03-14T00:51:31.775Z,98244.78
2023-03-14T00:54:00.291Z,98259.13
2023-03-14T00:56:31.711Z,98255.84
2023-03-14T00:59:00.676Z,98246.13
2023-03-14T01:01:30.093Z,98258.91
2023-03-14T01:03:58.663Z,98258.50
2023-03-14T01:06:33.561Z,98264.22
2023-03-14T01:09:02.236Z,98278.28
2023-03-14T01:11:30.888Z,98288.50
2023-03-14T01:14:00.735Z,98265.09
2023-03-14T01:16:33.330Z,98290.03
2023-03-14T01:19:01.324Z,98291.97
2023-03-14T01:21:29.805Z,98290.44
2023-03-14T01:24:01.030Z,98298.47
2023-03-14T01:26:32.951Z,98275.28
2023-03-14T01:29:01.408Z,98288.28
2023-03-14T01:31:30.605Z,98289.56
2023-03-14T01:33:59.070Z,98298.69
2023-03-14T01:36:25.624Z,98294.78
2023-03-14T01:38:55.301Z,98303.88
2023-03-14T01:41:26.400Z,98297.41
2023-03-14T01:44:00.349Z,98294.16
2023-03-14T01:46:34.935Z,98272.91
2023-03-14T01:49:09.966Z,98275.91
2023-03-14T01:51:45.629Z,98272.75
2023-03-14T01:54:19.600Z,98272.34
2023-03-14T01:56:53.402Z,98285.22
2023-03-14T01:59:20.747Z,98283.94
2023-03-14T02:01:50.465Z,98276.34
2023-03-14T02:04:18.802Z,98267.03
2023-03-14T02:06:50.770Z,98262.38
2023-03-14T02:09:19.330Z,98255.56
2023-03-14T02:11:46.283Z,98252.84
2023-03-14T02:14:34.073Z,98257.03
2023-03-14T02:17:20.828Z,98248.59
2023-03-14T02:20:28.141Z,98249.50
2023-03-14T02:22:59.422Z,98247.53
2023-03-14T02:25:39.692Z,98232.06
2023-03-14T02:28:07.742Z,98229.53
2023-03-14T02:30:35.057Z,98223.25
2023-03-14T02:33:05.138Z,98219.34
2023-03-14T02:35:38.942Z,98184.91
2023-03-14T02:38:14.493Z,98204.19
2023-03-14T02:40:44.141Z,98194.19
2023-03-14T02:43:12.714Z,98177.94
2023-03-14T02:45:45.388Z,98198.66
2023-03-14T02:48:18.791Z,98183.72
2023-03-14T02:50:48.904Z,98181.09
2023-03-14T02:53:19.768Z,98193.03
2023-03-14T02:55:47.687Z,98174.47
2023-03-14T02:58:17.930Z,98183.94
2023-03-14T03:00:46.425Z,98174.72
2023-03-14T03:03:13.798Z,98183.50
2023-03-14T03:05:41.201Z,98186.44
2023-03-14T03:08:08.754Z,98178.06
2023-03-14T03:10:35.431Z,98186.00
2023-03-14T03:13:02.171Z,98184.06
2023-03-14T03:15:31.916Z,98181.66
2023-03-14T03:18:00.293Z,98203.97
2023-03-14T03:20:31.653Z,98187.97
2023-03-14T03:22:59.633Z,98190.84
2023-03-14T03:25:31.399Z,98170.94
2023-03-14T03:28:00.902Z,98179.81
2023-03-14T03:30:31.294Z,98180.81
2023-03-14T03:33:00.893Z,98149.59
2023-03-14T03:35:31.542Z,98154.03
2023-03-14T03:38:00.036Z,98166.81
2023-03-14T03:40:29.836Z,98145.91
2023-03-14T03:43:00.416Z,98130.75
2023-03-14T03:45:35.934Z,98148.94
2023-03-14T03:48:02.566Z,98146.34
2023-03-14T03:50:31.613Z,98132.03
2023-03-14T03:53:01.212Z,98121.63
2023-03-14T03:55:32.417Z,98125.09
2023-03-14T03:58:01.921Z,98135.94
2023-03-14T04:00:32.918Z,98135.19
2023-03-14T04:03:01.716Z,98135.06
2023-03-14T04:05:31.989Z,98126.19
2023-03-14T04:08:03.598Z,98133.97
2023-03-14T04:10:31.081Z,98124.41
2023-03-14T04:13:30.303Z,98125.94
2023-03-14T04:16:01.081Z,98118.16
2023-03-14T04:18:30.375Z,98123.56
2023-03-14T04:21:00.781Z,98139.59
2023-03-14T04:23:36.269Z,98139.91
2023-03-14T04:26:03.104Z,98143.72
2023-03-14T04:28:32.562Z,98117.94
2023-03-14T04:31:07.857Z,98128.25
2023-03-14T04:33:34.462Z,98111.88
2023-03-14T04:36:01.072Z,98109.84
2023-03-14T04:38:29.754Z,98088.06
2023-03-14T04:40:57.894Z,98105.81
2023-03-14T04:43:33.511Z,98105.25
2023-03-14T04:46:07.064Z,98084.91
2023-03-14T04:48:34.101Z,98091.31
2023-03-14T04:51:01.171Z,98091.31
2023-03-14T04:53:32.940Z,98085.34
2023-03-14T04:56:01.973Z,98083.06
2023-03-14T04:58:35.358Z,98078.75
2023-03-14T05:01:03.838Z,98087.84
2023-03-14T05:03:47.512Z,98073.22
2023-03-14T05:06:19.349Z,98067.94
2023-03-14T05:09:02.011Z,98073.56
2023-03-14T05:11:40.847Z,98057.09
2023-03-14T05:14:21.617Z,98056.44
2023-03-14T05:17:00.614Z,98042.03
2023-03-14T05:19:47.152Z,98054.50
2023-03-14T05:22:42.921Z,98060.88
2023-03-14T05:25:32.725Z,98073.00
2023-03-14T05:28:17.660Z,98062.09
2023-03-14T05:30:51.845Z,98071.81
2023-03-14T05:33:41.394Z,98065.13
2023-03-14T05:36:32.865Z,98050.50
2023-03-14T05:39:07.997Z,98067.38
2023-03-14T05:41:52.766Z,98052.75
2023-03-14T05:44:37.882Z,98057.53
2023-03-14T05:47:25.334Z,98054.50
2023-03-14T05:50:15.074Z,98050.94
2023-03-14T05:53:01.399Z,98061.88
2023-03-14T05:55:42.132Z,98054.50
2023-03-14T05:58:15.940Z,98056.44
2023-03-14T06:00:52.793Z,98071.81
2023-03-14T06:03:48.483Z,98082.22
2023-03-14T06:06:15.029Z,98072.56
2023-03-14T06:08:43.077Z,98084.38
2023-03-14T06:11:11.737Z,98100.41
2023-03-14T06:13:38.317Z,98107.31
2023-03-14T06:16:05.583Z,98102.22
2023-03-14T06:18:32.227Z,98099.53
2023-03-14T06:21:00.868Z,98098.88
2023-03-14T06:23:33.273Z,98109.50
2023-03-14T06:26:01.783Z,98102.91
2023-03-14T06:28:31.894Z,98099.31
2023-03-14T06:31:01.523Z,98106.69
2023-03-14T06:33:33.302Z,98094.88
2023-03-14T06:36:00.770Z,98087.00
2023-03-14T06:38:29.319Z,98093.38
2023-03-14T06:41:03.361Z,98091.19
2023-03-14T06:43:35.949Z,98098.88
2023-03-14T06:46:02.900Z,98093.69
2023-03-14T06:48:32.041Z,98116.84
2023-03-14T06:51:00.415Z,98119.34
2023-03-14T06:53:28.898Z,98116.44
2023-03-14T06:55:57.093Z,98113.41
2023-03-14T06:58:30.134Z,98106.16
2023-03-14T07:00:59.448Z,98125.09
2023-03-14T07:03:30.997Z,98120.78
2023-03-14T07:06:01.145Z,98123.34
2023-03-14T07:08:33.854Z,98111.88
2023-03-14T07:11:01.552Z,98121.09
2023-03-14T07:13:30.425Z,98110.38
2023-03-14T07:16:04.065Z,98110.69
2023-03-14T07:18:30.892Z,98098.66
2023-03-14T07:21:00.361Z,98104.47
2023-03-14T07:23:27.002Z,98102.50
2023-03-14T07:25:59.335Z,98084.75
2023-03-14T07:28:30.355Z,98098.84
2023-03-14T07:31:09.641Z,98073.56
2023-03-14T07:33:37.750Z,98085.84
2023-03-14T07:36:05.359Z,98072.09
2023-03-14T07:38:31.990Z,98082.78
2023-03-14T07:41:36.789Z,98068.22
2023-03-14T07:44:21.686Z,98099.72
2023-03-14T07:46:49.551Z,98091.50
2023-03-14T07:49:16.141Z,98098.19
2023-03-14T07:51:42.541Z,98083.00
2023-03-14T07:54:09.006Z,98094.25
2023-03-14T07:56:35.441Z,98104.09
2023-03-14T07:59:01.934Z,98110.84
2023-03-14T08:01:30.490Z,98113.34
2023-03-14T08:04:00.509Z,98108.19
2023-03-14T08:06:31.333Z,98104.22
2023-03-14T08:09:02.312Z,98098.63
2023-03-14T08:11:30.750Z,98105.44
2023-03-14T08:14:03.182Z,98097.81
2023-03-14T08:16:31.366Z,98080.09
2023-03-14T08:18:59.211Z,98097.34
2023-03-14T08:21:28.857Z,98091.22
2023-03-14T08:24:02.902Z,98093.78
2023-03-14T08:26:31.063Z,98095.13
2023-03-14T08:28:57.690Z,98088.50
2023-03-14T08:31:28.357Z,98086.63
2023-03-14T08:34:00.946Z,98097.22
2023-03-14T08:36:33.065Z,98096.63
2023-03-14T08:38:59.614Z,98099.47
2023-03-14T08:41:26.200Z,98088.47
2023-03-14T08:43:52.671Z,98082.94
2023-03-14T08:46:19.138Z,98083.03
2023-03-14T08:48:45.722Z,98095.56
2023-03-14T08:51:14.266Z,98090.13
2023-03-14T08:53:42.389Z,98091.34
2023-03-14T08:56:09.927Z,98086.75
2023-03-14T08:58:36.514Z,98100.47
2023-03-14T09:01:03.004Z,98100.47
2023-03-14T09:03:29.840Z,98078.75
2023-03-14T09:06:00.162Z,98109.22
2023-03-14T09:08:32.988Z,98102.69
2023-03-14T09:11:00.962Z,98106.91
2023-03-14T09:13:31.462Z,98107.75
2023-03-14T09:16:01.991Z,98111.69
2023-03-14T09:18:30.059Z,98108.13
2023-03-14T09:21:01.304Z,98101.94
2023-03-14T09:23:29.724Z,98109.63
2023-03-14T09:26:02.191Z,98105.41
2023-03-14T09:28:32.029Z,98110.84
2023-03-14T09:31:05.678Z,98112.81
2023-03-14T09:33:32.101Z,98095.66
2023-03-14T09:35:59.488Z,98096.53
2023-03-14T09:38:31.205Z,98105.03
2023-03-14T09:41:03.802Z,98105.53
2023-03-14T09:43:37.150Z,98084.91
2023-03-14T09:46:04.726Z,98098.28
2023-03-14T09:48:33.895Z,98106.66
2023-03-14T09:51:13.799Z,98088.25
2023-03-14T09:53:45.695Z,98084.66
2023-03-14T09:56:31.225Z,98093.06
2023-03-14T09:59:12.222Z,98110.72
2023-03-14T10:01:38.975Z,98095.53
2023-03-14T10:04:12.194Z,98117.66
2023-03-14T10:06:39.203Z,98101.22
2023-03-14T10:09:06.164Z,98088.38
2023-03-14T10:11:33.116Z,98125.66
2023-03-14T10:14:15.774Z,98086.63
2023-03-14T10:17:09.954Z,98103.31
2023-03-14T10:19:51.227Z,98078.13
2023-03-14T10:22:20.654Z,98087.88
2023-03-14T10:24:59.684Z,98105.66
2023-03-14T10:27:41.693Z,98102.22
2023-03-14T10:30:34.644Z,98084.31
2023-03-14T10:33:23.791Z,98068.97
2023-03-14T10:36:03.087Z,98072.03
2023-03-14T10:38:35.868Z,98097.00
2023-03-14T10:44:07.289Z,98080.88
2023-03-14T10:47:12.410Z,98108.34
2023-03-14T10:49:39.051Z,98090.06
2023-03-14T10:52:23.334Z,98076.38
2023-03-14T10:55:01.844Z,98070.31
2023-03-14T10:57:39.474Z,98092.53
2023-03-14T11:00:17.120Z,98083.91
2023-03-14T11:02:59.708Z,98088.34
2023-03-14T11:05:51.540Z,98097.66
2023-03-14T11:08:51.158Z,98115.81
2023-03-14T11:11:40.290Z,98093.34
2023-03-14T11:14:18.212Z,98110.84
2023-03-14T11:17:04.485Z,98115.88
2023-03-14T11:19:45.123Z,98121.47
2023-03-14T11:25:19.452Z,98092.06
2023-03-14T11:28:03.554Z,98100.72
2023-03-14T11:30:48.046Z,98116.03
2023-03-14T11:33:35.192Z,98108.13
2023-03-14T11:36:11.385Z,98100.44
2023-03-14T11:38:52.976Z,98102.91
2023-03-14T11:41:36.959Z,98081.16
2023-03-14T11:44:14.410Z,98105.06
2023-03-14T11:46:46.490Z,98105.88
2023-03-14T11:49:34.943Z,98112.44
2023-03-14T11:52:10.847Z,98100.56
2023-03-14T11:54:47.346Z,98086.34
2023-03-14T11:57:22.534Z,98086.22
2023-03-14T12:00:01.649Z,98082.56
2023-03-14T12:02:43.383Z,98108.56
2023-03-14T12:05:44.296Z,98098.19
2023-03-14T12:08:44.229Z,98087.31
2023-03-14T12:11:21.255Z,98107.31
2023-03-14T12:13:50.502Z,98080.16
2023-03-14T12:16:33.068Z,98090.78
2023-03-14T12:19:13.816Z,98093.78
2023-03-14T12:21:51.744Z,98101.56
2023-03-14T12:24:20.760Z,98096.50
2023-03-14T12:26:53.818Z,98091.09
2023-03-14T12:29:20.517Z,98113.59
2023-03-14T12:31:48.410Z,98101.47
2023-03-14T12:34:32.371Z,98089.88
2023-03-14T12:37:15.253Z,98078.00
2023-03-14T12:40:10.685Z,98075.84
2023-03-14T12:42:46.129Z,98070.72
2023-03-14T12:45:23.666Z,98084.56
2023-03-14T12:48:12.808Z,98067.97
2023-03-14T12:50:43.926Z,98070.84
2023-03-14T12:53:51.848Z,98055.38
2023-03-14T12:56:43.594Z,98060.84
2023-03-14T12:59:32.312Z,98043.94
2023-03-14T13:02:03.156Z,98066.56
2023-03-14T13:04:39.730Z,98028.78
2023-03-14T13:07:12.752Z,98041.13
2023-03-14T13:10:15.360Z,98050.03
2023-03-14T13:12:48.851Z,98047.75
2023-03-14T13:15:31.884Z,98031.22
2023-03-14T13:18:04.361Z,98017.28
2023-03-14T13:20:34.566Z,98012.13
2023-03-14T13:23:01.073Z,98025.97
2023-03-14T13:25:31.125Z,98016.03
2023-03-14T13:28:02.341Z,98025.38
2023-03-14T13:30:40.609Z,98024.41
2023-03-14T13:33:07.783Z,98006.94
2023-03-14T13:35:41.997Z,98018.81
2023-03-14T13:38:17.379Z,98019.56
2023-03-14T13:40:45.361Z,98009.91
2023-03-14T13:43:20.803Z,98028.03
2023-03-14T13:45:52.662Z,98005.66
2023-03-14T13:48:20.404Z,98016.88
2023-03-14T13:50:51.162Z,98009.97
2023-03-14T13:53:17.755Z,98013.88
2023-03-14T13:55:44.260Z,98011.53
2023-03-14T13:58:20.717Z,97986.63
2023-03-14T14:01:00.730Z,98008.22
2023-03-14T14:03:40.013Z,98002.09
2023-03-14T14:06:17.763Z,98006.69
2023-03-14T14:08:45.879Z,97991.25
2023-03-14T14:11:42.732Z,97985.22
2023-03-14T14:17:42.770Z,98006.63
2023-03-14T14:23:30.710Z,98012.31
2023-03-14T14:26:11.025Z,98008.22
2023-03-14T14:28:41.105Z,98017.75
2023-03-14T14:31:22.482Z,98029.31
2023-03-14T14:34:19.706Z,97997.25
2023-03-14T14:36:54.180Z,97987.72
2023-03-14T14:39:35.697Z,98019.13
2023-03-14T14:42:14.412Z,98006.13
2023-03-14T14:45:06.339Z,98010.84
2023-03-14T14:47:33.768Z,98014.81
2023-03-14T14:50:45.194Z,98029.16
2023-03-14T14:53:24.055Z,98022.91
2023-03-14T14:55:53.605Z,98053.09
2023-03-14T14:58:35.262Z,98050.84
2023-03-14T15:01:11.451Z,98078.59
2023-03-14T15:03:43.412Z,98056.13
2023-03-14T15:06:17.649Z,98091.66
2023-03-14T15:08:51.752Z,98083.31
2023-03-14T15:11:21.510Z,98109.81
2023-03-14T15:17:23.562Z,98217.81
2023-03-14T17:03:44.724Z,98891.25
2023-03-14T18:10:17.731Z,99135.38
2023-03-14T18:38:48.763Z,99235.63
2023-03-14T18:50:45.066Z,99263.16
2023-03-14T18:53:50.091Z,99239.56
2023-03-14T19:00:06.032Z,99262.22
2023-03-14T19:02:34.892Z,99287.03
2023-03-14T19:05:32.473Z,99286.31
2023-03-14T19:08:50.105Z,99300.25
2023-03-14T19:12:09.131Z,99281.16
2023-03-14T19:14:38.857Z,99320.97
2023-03-14T19:17:08.142Z,99336.00
2023-03-14T19:19:34.639Z,99336.91
2023-03-14T19:22:01.177Z,99327.22
2023-03-14T19:24:33.730Z,99362.75
2023-03-14T19:27:01.676Z,99337.41
2023-03-14T19:29:33.957Z,99364.84
2023-03-14T19:32:02.280Z,99378.19
2023-03-14T19:34:30.822Z,99396.13
2023-03-14T19:37:02.539Z,99399.03
2023-03-14T19:39:30.085Z,99406.25
2023-03-14T19:42:00.551Z,99412.63
2023-03-14T19:44:31.039Z,99401.25
2023-03-14T19:47:04.081Z,99399.59
2023-03-14T19:49:32.399Z,99407.63
2023-03-14T19:52:02.072Z,99418.28
2023-03-14T19:54:34.739Z,99433.44
2023-03-14T19:57:01.510Z,99443.38
2023-03-14T19:59:31.814Z,99428.50
2023-03-14T20:02:01.494Z,99437.50
2023-03-14T20:04:31.009Z,99472.88
2023-03-14T20:07:10.479Z,99454.31
2023-03-14T20:09:37.090Z,99457.16
2023-03-14T20:12:03.880Z,99461.59
2023-03-14T20:14:31.855Z,99474.94
2023-03-14T20:17:00.820Z,99488.09
2023-03-14T20:19:31.856Z,99484.56
2023-03-14T20:22:03.859Z,99475.91
2023-03-14T20:24:32.805Z,99500.88
2023-03-14T20:27:05.285Z,99490.47
2023-03-14T20:29:39.023Z,99515.28
2023-03-14T20:32:06.190Z,99510.13
2023-03-14T20:34:32.847Z,99512.84
2023-03-14T20:37:01.935Z,99528.81
2023-03-14T20:39:32.982Z,99508.53
2023-03-14T20:42:04.676Z,99521.03
2023-03-14T20:44:31.297Z,99519.28
2023-03-14T20:47:02.068Z,99538.75
2023-03-14T20:49:31.585Z,99510.69
2023-03-14T20:52:04.192Z,99506.28
2023-03-14T20:54:33.890Z,99535.53
2023-03-14T20:57:02.580Z,99535.56
2023-03-14T20:59:31.374Z,99559.38
2023-03-14T21:02:03.973Z,99551.56
2023-03-14T21:04:32.055Z,99546.31
2023-03-14T21:07:02.722Z,99564.00
2023-03-14T21:09:32.395Z,99581.72
2023-03-14T21:12:01.038Z,99571.16
2023-03-14T21:14:30.106Z,99589.81
2023-03-14T21:17:02.515Z,99589.91
2023-03-14T21:19:38.818Z,99588.19
2023-03-14T21:22:07.296Z,99560.91
2023-03-14T21:24:33.790Z,99575.00
2023-03-14T21:27:02.147Z,99608.50
2023-03-14T21:29:32.445Z,99606.75
2023-03-14T21:32:00.873Z,99607.66
2023-03-14T21:34:30.111Z,99605.94
2023-03-14T21:37:04.190Z,99625.50
2023-03-14T21:39:34.291Z,99617.53
2023-03-14T21:42:01.580Z,99615.72
2023-03-14T21:44:31.886Z,99598.09
2023-03-14T21:47:04.333Z,99605.84
2023-03-14T21:49:31.316Z,99635.03
2023-03-14T21:52:10.123Z,99616.47
2023-03-14T21:54:36.975Z,99628.91
2023-03-14T21:57:05.460Z,99623.66
2023-03-14T21:59:34.149Z,99629.84
2023-03-14T22:02:04.521Z,99626.44
2023-03-14T22:04:32.356Z,99648.66
2023-03-14T22:07:02.083Z,99644.28
2023-03-14T22:09:33.843Z,99653.22
2023-03-14T22:12:03.989Z,99666.53
2023-03-14T22:14:33.104Z,99672.72
2023-03-14T22:17:01.935Z,99655.09
2023-03-14T22:19:34.585Z,99644.63
2023-03-14T22:22:03.050Z,99674.63
2023-03-14T22:24:31.476Z,99664.09
2023-03-14T22:26:59.212Z,99690.63
2023-03-14T22:29:31.279Z,99675.66
2023-03-14T22:32:04.049Z,99685.38
2023-03-14T22:34:33.829Z,99696.81
2023-03-14T22:37:03.832Z,99714.56
2023-03-14T22:39:32.581Z,99715.47
2023-03-14T22:42:01.520Z,99717.22
2023-03-14T22:44:36.785Z,99729.66
2023-03-14T22:47:03.359Z,99726.09
2023-03-14T22:49:32.916Z,99723.47
2023-03-14T22:52:01.448Z,99720.84
2023-03-14T22:54:35.467Z,99721.81
2023-03-14T22:57:02.193Z,99749.31
2023-03-14T22:59:34.606Z,99751.09
2023-03-14T23:02:01.170Z,99737.00
2023-03-14T23:04:31.298Z,99748.56
2023-03-14T23:07:02.177Z,99727.31
2023-03-14T23:09:37.846Z,99745.97
2023-03-14T23:12:05.002Z,99753.91
2023-03-14T23:14:31.526Z,99746.81
2023-03-14T23:16:59.858Z,99761.91
2023-03-14T23:19:31.586Z,99758.38
2023-03-14T23:22:07.546Z,99752.22
2023-03-14T23:24:34.107Z,99750.41
2023-03-14T23:27:04.800Z,99776.09
2023-03-14T23:29:33.600Z,99769.06
2023-03-14T23:32:00.119Z,99778.94
2023-03-14T23:34:29.389Z,99776.22
2023-03-14T23:37:00.453Z,99783.38
2023-03-14T23:39:34.555Z,99786.09
2023-03-14T23:42:01.029Z,99794.03
2023-03-14T23:44:30.168Z,99794.06
2023-03-14T23:46:57.809Z,99803.00
2023-03-14T23:49:24.305Z,99799.47
2023-03-14T23:51:50.785Z,99800.31
2023-03-14T23:54:17.199Z,99808.34
2023-03-14T23:56:43.682Z,99793.28
2023-03-14T23:59:10.059Z,99809.31
